Time;durP1;ratioP1;P1;durP2;ratioP2;P2;SDS_P1;SDS_P2;PMS_P1;PMS_P2;Temp;Humidity;BMP_temperature;BMP_pressure;BME280_temperature;BME280_humidity;BME280_pressure;Samples;Min_cycle;Max_cycle;Signal;HPM_P1;HPM_P2
2023/06/02 00:01:00;;;;;;;41.03;9.07;;;11.60;87.00;;;;;;5015726;28;20181;-87
2023/06/02 00:03:36;;;;;;;30.67;7.20;;;11.60;87.00;;;;;;5015501;28;20205;-87
2023/06/02 00:06:05;;;;;;;32.93;7.93;;;11.60;86.80;;;;;;5015547;28;20209;-88
2023/06/02 00:08:32;;;;;;;24.93;7.83;;;11.60;87.00;;;;;;5015728;28;20181;-87
2023/06/02 00:10:58;;;;;;;36.63;8.70;;;11.60;87.10;;;;;;5015340;28;20205;-87
2023/06/02 00:13:24;;;;;;;30.13;7.80;;;11.50;87.30;;;;;;5015662;28;20216;-87
2023/06/02 00:15:50;;;;;;;32.20;7.87;;;11.50;87.30;;;;;;5015771;28;20558;-87
2023/06/02 00:18:16;;;;;;;35.67;8.10;;;11.50;87.20;;;;;;5016481;28;20231;-87
2023/06/02 00:20:42;;;;;;;35.30;8.07;;;11.50;87.30;;;;;;5015862;28;20181;-88
2023/06/02 00:23:08;;;;;;;38.23;7.80;;;11.50;87.40;;;;;;5015582;28;20212;-88
2023/06/02 00:25:35;;;;;;;41.53;8.37;;;11.50;87.50;;;;;;5015153;28;20647;-87
2023/06/02 00:28:00;;;;;;;31.63;7.30;;;11.50;87.80;;;;;;5015187;28;20178;-87
2023/06/02 00:30:27;;;;;;;32.67;8.03;;;11.40;87.90;;;;;;5015049;28;20252;-87
2023/06/02 00:32:53;;;;;;;31.57;7.20;;;11.40;87.90;;;;;;5014977;28;20303;-87
2023/06/02 00:35:19;;;;;;;42.43;9.53;;;11.50;88.10;;;;;;5014903;28;20678;-88
2023/06/02 00:37:45;;;;;;;33.97;8.10;;;11.50;88.00;;;;;;5014932;28;20198;-87
2023/06/02 00:40:11;;;;;;;41.97;8.00;;;11.50;88.10;;;;;;5015020;28;20706;-87
2023/06/02 00:42:36;;;;;;;35.63;8.10;;;11.50;88.00;;;;;;5014931;28;20206;-87
2023/06/02 00:45:02;;;;;;;31.40;8.00;;;11.50;88.10;;;;;;5014807;28;20177;-88
2023/06/02 00:47:28;;;;;;;32.10;8.07;;;11.40;88.40;;;;;;5014825;28;20181;-88
2023/06/02 00:49:53;;;;;;;40.30;9.40;;;11.30;88.50;;;;;;5015972;28;20174;-87
2023/06/02 00:52:19;;;;;;;42.93;8.47;;;11.30;88.60;;;;;;5014515;28;20312;-87
2023/06/02 00:54:45;;;;;;;38.57;8.47;;;11.20;88.70;;;;;;5014633;28;20184;-88
2023/06/02 00:57:10;;;;;;;31.33;8.13;;;11.20;88.80;;;;;;5014566;28;20185;-88
2023/06/02 00:59:39;;;;;;;23.87;7.43;;;11.20;88.80;;;;;;5014607;28;20260;-88
2023/06/02 01:02:05;;;;;;;34.90;7.93;;;11.20;88.70;;;;;;5014464;28;20240;-87
2023/06/02 01:04:31;;;;;;;41.50;8.53;;;11.10;88.80;;;;;;5014724;28;20192;-88
2023/06/02 01:07:02;;;;;;;22.90;7.07;;;11.10;89.00;;;;;;5014497;28;20268;-88
2023/06/02 01:09:28;;;;;;;43.20;8.97;;;11.00;89.30;;;;;;5014362;28;20176;-87
2023/06/02 01:11:55;;;;;;;48.67;8.67;;;11.00;89.30;;;;;;5015272;28;20209;-87
2023/06/02 01:14:20;;;;;;;33.13;8.47;;;11.10;89.30;;;;;;5014477;28;20188;-88
2023/06/02 01:16:49;;;;;;;32.27;7.90;;;11.20;89.20;;;;;;5014543;28;20177;-88
2023/06/02 01:19:21;;;;;;;37.43;9.30;;;11.10;89.00;;;;;;5014122;28;20177;-87
2023/06/02 01:21:57;;;;;;;27.07;7.63;;;11.20;88.90;;;;;;5015025;28;20231;-87
2023/06/02 01:24:40;;;;;;;25.00;7.30;;;11.20;88.80;;;;;;5014293;28;20181;-88
2023/06/02 01:27:07;;;;;;;27.13;7.77;;;11.10;88.60;;;;;;5014296;28;20276;-88
2023/06/02 01:29:35;;;;;;;31.47;7.97;;;11.00;88.40;;;;;;5015486;28;20733;-88
2023/06/02 01:32:24;;;;;;;25.47;8.13;;;11.00;88.40;;;;;;5014705;28;20248;-87
2023/06/02 01:35:02;;;;;;;35.93;17.00;;;11.00;88.40;;;;;;5013522;28;20185;-88
2023/06/02 01:37:28;;;;;;;28.67;15.67;;;11.00;88.40;;;;;;5014792;28;20265;-88
2023/06/02 01:39:55;;;;;;;30.17;15.53;;;10.90;88.30;;;;;;5014059;28;20189;-88
2023/06/02 01:42:21;;;;;;;29.50;15.50;;;10.80;87.90;;;;;;5013695;28;20259;-88
2023/06/02 01:44:48;;;;;;;31.90;16.70;;;10.80;87.90;;;;;;5013669;28;20181;-87
2023/06/02 01:47:13;;;;;;;32.93;17.60;;;10.80;87.80;;;;;;5014009;28;20302;-88
2023/06/02 01:49:39;;;;;;;28.73;17.07;;;10.70;87.60;;;;;;5013639;28;20213;-87
2023/06/02 01:52:05;;;;;;;33.80;18.10;;;10.70;87.60;;;;;;5014678;28;20216;-87
2023/06/02 01:54:31;;;;;;;32.03;16.93;;;10.70;87.70;;;;;;5013808;28;20181;-88
2023/06/02 01:56:56;;;;;;;35.57;19.17;;;10.70;87.70;;;;;;5013564;28;20173;-88
2023/06/02 01:59:22;;;;;;;38.47;19.20;;;10.70;87.70;;;;;;5013497;28;20169;-87
2023/06/02 02:01:47;;;;;;;37.70;19.03;;;10.60;87.70;;;;;;5013550;28;20299;-87
2023/06/02 02:04:13;;;;;;;39.43;18.13;;;10.60;87.90;;;;;;5014501;28;20178;-87
2023/06/02 02:06:39;;;;;;;35.30;18.57;;;10.60;88.10;;;;;;5013376;28;20181;-88
2023/06/02 02:09:07;;;;;;;37.23;19.73;;;10.50;88.20;;;;;;5013232;28;20185;-88
2023/06/02 02:11:33;;;;;;;37.33;19.00;;;10.50;88.30;;;;;;5014342;28;20230;-89
2023/06/02 02:13:59;;;;;;;30.03;8.07;;;10.50;88.30;;;;;;5013698;28;20194;-88
2023/06/02 02:16:24;;;;;;;27.33;9.77;;;10.60;88.40;;;;;;5013263;28;20227;-88
2023/06/02 02:18:52;;;;;;;31.40;9.40;;;10.50;88.30;;;;;;5013140;28;20312;-88
2023/06/02 02:21:18;;;;;;;30.63;9.73;;;10.50;88.20;;;;;;5014503;28;20200;-88
2023/06/02 02:23:44;;;;;;;29.57;8.97;;;10.50;88.20;;;;;;5014303;28;20199;-88
2023/06/02 02:26:09;;;;;;;29.37;9.07;;;10.40;88.20;;;;;;5012934;28;20189;-88
2023/06/02 02:28:37;;;;;;;26.13;9.50;;;10.40;88.10;;;;;;5013575;28;20189;-88
2023/06/02 02:31:04;;;;;;;28.90;8.93;;;10.40;88.10;;;;;;5012746;28;20205;-88
2023/06/02 02:33:30;;;;;;;29.00;9.27;;;10.30;87.90;;;;;;5012798;28;20201;-88
2023/06/02 02:35:56;;;;;;;34.30;10.47;;;10.30;88.10;;;;;;5012868;28;20181;-88
2023/06/02 02:38:21;;;;;;;32.10;9.77;;;10.30;88.00;;;;;;5012840;28;20177;-88
2023/06/02 02:40:47;;;;;;;24.50;9.87;;;10.30;88.00;;;;;;5012818;28;20181;-87
2023/06/02 02:43:12;;;;;;;33.67;10.03;;;10.30;88.00;;;;;;5012553;28;20667;-88
2023/06/02 02:45:38;;;;;;;26.40;9.70;;;10.20;87.90;;;;;;5013810;28;20181;-88
2023/06/02 02:48:04;;;;;;;33.30;11.30;;;10.20;87.90;;;;;;5014440;28;20184;-87
2023/06/02 02:50:30;;;;;;;41.03;10.93;;;10.30;88.10;;;;;;5012527;28;20765;-87
2023/06/02 02:52:56;;;;;;;39.03;11.37;;;10.20;87.90;;;;;;5012516;28;20189;-88
2023/06/02 02:55:21;;;;;;;37.23;10.60;;;10.20;88.10;;;;;;5012536;28;20177;-88
2023/06/02 02:57:47;;;;;;;36.57;10.97;;;10.30;88.30;;;;;;5012491;28;20173;-88
2023/06/02 03:00:13;;;;;;;40.07;11.30;;;10.20;88.20;;;;;;5012613;28;20173;-88
2023/06/02 03:02:39;;;;;;;31.13;9.17;;;10.10;88.30;;;;;;5012446;28;20286;-87
2023/06/02 03:05:06;;;;;;;32.03;9.23;;;10.00;88.60;;;;;;5013646;28;20643;-87
2023/06/02 03:07:34;;;;;;;30.73;9.07;;;10.00;88.70;;;;;;5012354;28;20556;-87
2023/06/02 03:10:00;;;;;;;28.57;9.63;;;9.90;88.70;;;;;;5012407;28;20263;-87
2023/06/02 03:12:25;;;;;;;37.17;9.70;;;9.90;89.00;;;;;;5012142;28;20241;-87
2023/06/02 03:14:51;;;;;;;29.67;9.47;;;10.00;89.20;;;;;;5012292;28;20184;-87
2023/06/02 03:17:17;;;;;;;26.83;8.67;;;10.20;89.50;;;;;;5013528;28;20711;-88
2023/06/02 03:19:43;;;;;;;23.53;8.27;;;10.30;89.40;;;;;;5013770;28;20165;-87
2023/06/02 03:22:09;;;;;;;30.70;8.87;;;10.40;89.30;;;;;;5012244;28;20197;-87
2023/06/02 03:24:34;;;;;;;38.77;7.93;;;10.40;88.80;;;;;;5012113;28;20177;-86
2023/06/02 03:27:00;;;;;;;32.83;7.83;;;10.30;88.50;;;;;;5012174;28;20173;-87
2023/06/02 03:29:25;;;;;;;29.20;8.13;;;10.30;88.60;;;;;;5012121;28;20177;-87
2023/06/02 03:31:54;;;;;;;26.30;8.33;;;10.30;88.40;;;;;;5011945;28;20216;-87
2023/06/02 03:34:20;;;;;;;27.70;8.20;;;10.40;88.30;;;;;;5012117;28;20181;-87
2023/06/02 03:36:46;;;;;;;19.97;8.27;;;10.40;88.00;;;;;;5012190;28;20231;-88
2023/06/02 03:39:12;;;;;;;29.07;8.73;;;10.40;87.90;;;;;;5012108;28;20177;-87
2023/06/02 03:41:38;;;;;;;25.33;7.93;;;10.50;87.90;;;;;;5011982;28;20201;-87
2023/06/02 03:44:04;;;;;;;18.40;7.73;;;10.70;87.80;;;;;;5012106;28;20184;-87
2023/06/02 03:46:30;;;;;;;30.47;7.90;;;10.80;87.60;;;;;;5012056;28;20276;-87
2023/06/02 03:48:56;;;;;;;35.57;7.97;;;10.90;87.60;;;;;;5011966;28;20770;-87
2023/06/02 03:51:22;;;;;;;31.03;8.13;;;11.10;87.20;;;;;;5013310;28;20280;-87
2023/06/02 03:53:51;;;;;;;25.13;7.50;;;11.20;87.10;;;;;;5011981;28;20572;-87
2023/06/02 03:56:17;;;;;;;26.60;8.33;;;11.30;86.80;;;;;;5011929;28;20178;-87
2023/06/02 03:58:42;;;;;;;22.43;7.50;;;11.30;86.70;;;;;;5011864;28;20184;-87
2023/06/02 04:01:08;;;;;;;27.33;7.80;;;11.30;86.20;;;;;;5011911;28;20181;-87
2023/06/02 04:03:36;;;;;;;23.80;7.57;;;11.30;86.00;;;;;;5011897;28;20214;-87
2023/06/02 04:06:05;;;;;;;23.93;7.67;;;11.40;85.80;;;;;;5011968;28;20274;-87
2023/06/02 04:08:32;;;;;;;27.03;7.80;;;11.30;85.70;;;;;;5013274;28;20240;-87
2023/06/02 04:10:57;;;;;;;22.60;7.77;;;11.40;85.70;;;;;;5013300;28;20244;-87
2023/06/02 04:13:23;;;;;;;24.23;8.07;;;11.50;85.80;;;;;;5016415;28;20245;-88
2023/06/02 04:15:48;;;;;;;26.53;7.57;;;11.50;85.50;;;;;;5015454;28;20201;-87
2023/06/02 04:18:14;;;;;;;17.27;7.40;;;11.60;85.30;;;;;;5017200;28;20628;-87
2023/06/02 04:20:39;;;;;;;32.73;9.33;;;11.50;84.90;;;;;;5016472;28;20585;-88
2023/06/02 04:23:05;;;;;;;24.07;8.37;;;11.40;85.10;;;;;;5016395;28;20339;-87
2023/06/02 04:25:30;;;;;;;24.23;8.27;;;11.40;85.10;;;;;;5015771;28;20189;-87
2023/06/02 04:27:56;;;;;;;25.67;7.80;;;11.40;85.10;;;;;;5015224;28;20556;-87
2023/06/02 04:30:21;;;;;;;19.00;7.97;;;11.40;85.10;;;;;;5016622;28;20182;-88
2023/06/02 04:32:47;;;;;;;21.63;8.03;;;11.20;85.00;;;;;;5014976;28;20224;-87
2023/06/02 04:35:13;;;;;;;22.20;7.47;;;11.20;85.30;;;;;;5016397;28;20256;-87
2023/06/02 04:37:38;;;;;;;22.27;7.50;;;11.30;85.50;;;;;;5014924;28;20260;-87
2023/06/02 04:40:05;;;;;;;21.27;7.73;;;11.20;85.40;;;;;;5014984;28;20249;-88
2023/06/02 04:42:32;;;;;;;19.20;7.10;;;11.20;85.30;;;;;;5014865;28;20722;-87
2023/06/02 04:45:00;;;;;;;17.43;7.67;;;11.20;85.50;;;;;;5014841;28;20180;-87
2023/06/02 04:47:27;;;;;;;23.13;7.27;;;11.30;85.60;;;;;;5014870;28;20173;-87
2023/06/02 04:49:53;;;;;;;16.57;7.13;;;11.30;85.40;;;;;;5014839;28;20184;-88
2023/06/02 04:52:19;;;;;;;20.07;7.23;;;11.20;85.40;;;;;;5015786;28;20571;-87
2023/06/02 04:54:44;;;;;;;17.23;6.93;;;11.20;85.40;;;;;;5014771;28;20184;-88
2023/06/02 04:57:10;;;;;;;15.70;6.90;;;11.20;85.40;;;;;;5014918;28;20173;-87
2023/06/02 04:59:35;;;;;;;18.53;7.20;;;11.20;85.50;;;;;;5015849;28;20181;-87
2023/06/02 05:02:01;;;;;;;19.33;7.23;;;11.20;85.40;;;;;;5014406;28;20209;-87
2023/06/02 05:04:27;;;;;;;15.37;7.00;;;11.20;85.50;;;;;;5015736;28;20173;-88
2023/06/02 05:06:53;;;;;;;19.27;6.97;;;11.20;85.90;;;;;;5014574;28;20220;-86
2023/06/02 05:09:19;;;;;;;15.70;7.07;;;11.30;85.90;;;;;;5014948;28;20647;-87
2023/06/02 05:11:44;;;;;;;21.03;7.33;;;11.30;85.80;;;;;;5014491;28;20220;-87
2023/06/02 05:14:10;;;;;;;19.07;6.90;;;11.30;86.00;;;;;;5015606;28;20664;-87
2023/06/02 05:16:36;;;;;;;19.00;7.83;;;11.30;86.10;;;;;;5014844;28;20597;-87
2023/06/02 05:19:05;;;;;;;20.73;7.33;;;11.40;86.40;;;;;;5014326;28;20715;-88
2023/06/02 05:21:31;;;;;;;19.27;7.60;;;11.50;86.40;;;;;;5014217;28;20547;-87
2023/06/02 05:23:58;;;;;;;14.93;6.57;;;11.50;86.50;;;;;;5015430;28;20226;-87
2023/06/02 05:26:26;;;;;;;17.70;7.43;;;11.50;86.60;;;;;;5014190;28;20689;-87
2023/06/02 05:28:53;;;;;;;20.00;7.30;;;11.60;86.70;;;;;;5014059;28;20542;-87
2023/06/02 05:31:19;;;;;;;16.10;7.00;;;11.70;86.70;;;;;;5013865;28;20671;-86
2023/06/02 05:33:45;;;;;;;12.50;6.47;;;11.80;86.50;;;;;;5015142;28;20344;-87
2023/06/02 05:36:11;;;;;;;17.67;6.93;;;11.80;86.50;;;;;;5013839;28;20188;-86
2023/06/02 05:38:41;;;;;;;13.97;6.60;;;11.90;86.60;;;;;;5013943;28;20208;-87
2023/06/02 05:41:06;;;;;;;12.13;6.23;;;12.00;86.40;;;;;;5015134;28;20173;-86
2023/06/02 05:43:32;;;;;;;25.10;7.53;;;12.10;86.50;;;;;;5013707;28;20205;-87
2023/06/02 05:45:57;;;;;;;13.80;5.97;;;12.30;86.50;;;;;;5013760;28;20231;-87
2023/06/02 05:48:23;;;;;;;11.50;7.10;;;12.30;86.30;;;;;;5013689;28;20663;-86
2023/06/02 05:50:49;;;;;;;18.07;6.93;;;12.30;86.20;;;;;;5014898;28;20203;-87
2023/06/02 05:53:14;;;;;;;19.27;7.03;;;12.40;86.40;;;;;;5014937;28;20626;-86
2023/06/02 05:55:40;;;;;;;12.77;6.77;;;12.40;86.30;;;;;;5013712;28;20550;-86
2023/06/02 05:58:05;;;;;;;14.97;7.50;;;12.40;86.20;;;;;;5013714;28;20180;-87
2023/06/02 06:00:31;;;;;;;15.93;7.37;;;12.50;86.10;;;;;;5013555;28;20197;-87
2023/06/02 06:02:56;;;;;;;17.63;7.37;;;12.50;86.20;;;;;;5013313;28;20267;-87
2023/06/02 06:05:22;;;;;;;21.10;11.83;;;12.50;86.20;;;;;;5013470;28;20190;-87
2023/06/02 06:07:47;;;;;;;20.07;12.47;;;12.60;86.50;;;;;;5014888;28;20597;-87
2023/06/02 06:10:13;;;;;;;18.87;11.90;;;12.70;86.70;;;;;;5013237;28;20707;-87
2023/06/02 06:12:39;;;;;;;21.67;11.73;;;12.70;87.00;;;;;;5014458;28;20205;-87
2023/06/02 06:15:05;;;;;;;17.00;12.10;;;12.80;87.20;;;;;;5013268;28;20173;-87
2023/06/02 06:17:30;;;;;;;17.50;9.23;;;12.90;87.10;;;;;;5013144;28;20179;-86
2023/06/02 06:19:56;;;;;;;21.47;8.40;;;13.00;87.00;;;;;;5014473;28;20173;-86
2023/06/02 06:22:21;;;;;;;18.93;8.43;;;13.00;87.10;;;;;;5013094;28;20277;-86
2023/06/02 06:24:47;;;;;;;19.57;8.23;;;13.10;87.00;;;;;;5013053;28;20211;-86
2023/06/02 06:27:13;;;;;;;15.53;8.47;;;13.20;86.90;;;;;;5014221;28;20659;-86
2023/06/02 06:29:38;;;;;;;20.57;9.40;;;13.20;86.90;;;;;;5014555;28;20174;-87
2023/06/02 06:32:06;;;;;;;21.53;8.90;;;13.20;86.90;;;;;;5012777;28;20213;-86
2023/06/02 06:34:31;;;;;;;18.17;9.80;;;13.30;86.80;;;;;;5012493;28;20182;-87
2023/06/02 06:36:57;;;;;;;20.50;9.90;;;13.30;87.00;;;;;;5012917;28;20184;-87
2023/06/02 06:39:23;;;;;;;26.47;10.63;;;13.40;86.70;;;;;;5012813;28;20181;-87
2023/06/02 06:41:48;;;;;;;23.07;10.37;;;13.40;86.50;;;;;;5012676;28;20224;-87
2023/06/02 06:44:14;;;;;;;17.77;9.93;;;13.50;86.60;;;;;;5013902;28;20660;-86
2023/06/02 06:46:40;;;;;;;19.63;9.60;;;13.70;86.70;;;;;;5013899;28;20300;-87
2023/06/02 06:49:05;;;;;;;16.30;8.73;;;13.70;86.20;;;;;;5012572;28;20660;-86
2023/06/02 06:51:31;;;;;;;17.10;8.80;;;13.80;85.80;;;;;;5012389;28;20212;-86
2023/06/02 06:53:56;;;;;;;18.17;8.57;;;13.80;85.50;;;;;;5012564;28;20550;-86
2023/06/02 06:56:22;;;;;;;15.93;9.43;;;14.00;85.60;;;;;;5012620;28;20169;-86
2023/06/02 06:58:48;;;;;;;21.80;10.17;;;14.00;84.70;;;;;;5014090;28;20173;-87
2023/06/02 07:01:13;;;;;;;16.27;9.00;;;14.00;84.80;;;;;;5012523;28;20552;-87
2023/06/02 07:03:39;;;;;;;19.27;8.97;;;14.00;85.10;;;;;;5012646;28;20177;-88
2023/06/02 07:06:05;;;;;;;18.57;10.70;;;14.10;85.30;;;;;;5013591;28;20189;-86
2023/06/02 07:08:30;;;;;;;15.43;8.90;;;14.10;84.90;;;;;;5012574;28;20719;-86
2023/06/02 07:10:56;;;;;;;20.30;9.40;;;14.20;84.60;;;;;;5013499;28;20610;-86
2023/06/02 07:13:23;;;;;;;19.67;9.03;;;14.40;84.30;;;;;;5013470;28;20205;-86
2023/06/02 07:15:49;;;;;;;16.50;9.07;;;14.30;83.60;;;;;;5013612;28;20264;-85
2023/06/02 07:18:14;;;;;;;20.90;10.03;;;14.30;83.70;;;;;;5012353;28;20651;-86
2023/06/02 07:20:40;;;;;;;10.97;7.90;;;14.30;83.80;;;;;;5012286;28;20180;-86
2023/06/02 07:23:05;;;;;;;13.33;8.20;;;14.30;83.90;;;;;;5012124;28;20200;-89
2023/06/02 07:25:31;;;;;;;14.30;8.13;;;14.30;83.60;;;;;;5013547;28;20193;-86
2023/06/02 07:27:57;;;;;;;16.37;8.40;;;14.30;83.80;;;;;;5013493;28;20224;-87
2023/06/02 07:30:22;;;;;;;17.37;8.00;;;14.30;83.70;;;;;;5012199;28;20181;-87
2023/06/02 07:32:48;;;;;;;19.47;8.37;;;14.40;83.80;;;;;;5012131;28;20247;-87
2023/06/02 07:35:15;;;;;;;13.13;8.27;;;14.30;83.50;;;;;;5012056;28;20754;-87
2023/06/02 07:37:41;;;;;;;15.27;7.77;;;14.30;83.90;;;;;;5013632;28;20173;-86
2023/06/02 07:40:07;;;;;;;12.97;7.83;;;14.30;84.10;;;;;;5012056;28;20548;-88
2023/06/02 07:42:33;;;;;;;11.93;7.10;;;14.30;84.10;;;;;;5012029;28;20706;-88
2023/06/02 07:44:58;;;;;;;13.87;7.07;;;14.40;84.10;;;;;;5012101;28;20181;-88
2023/06/02 07:47:24;;;;;;;12.10;6.87;;;14.60;83.90;;;;;;5016063;28;20667;-90
2023/06/02 07:49:49;;;;;;;8.03;7.20;;;14.80;83.00;;;;;;5015914;28;20193;-89
2023/06/02 07:52:15;;;;;;;16.50;7.68;;;14.90;82.70;;;;;;5017523;28;20231;-88
2023/06/02 07:54:40;;;;;;;15.82;7.40;;;15.10;81.60;;;;;;5015865;28;20308;-88
2023/06/02 07:57:06;;;;;;;9.55;6.70;;;15.10;80.80;;;;;;5015911;28;20173;-88
2023/06/02 07:59:32;;;;;;;13.15;6.68;;;15.10;81.50;;;;;;5016971;28;20272;-87
2023/06/02 08:01:57;;;;;;;10.25;6.65;;;15.10;82.20;;;;;;5015643;28;20197;-89
2023/06/02 08:04:25;;;;;;;14.80;12.77;;;14.90;81.70;;;;;;5017141;28;20220;-86
2023/06/02 08:06:52;;;;;;;14.63;13.37;;;14.90;82.10;;;;;;5016915;28;20679;-86
2023/06/02 08:09:18;;;;;;;16.65;14.95;;;14.80;81.60;;;;;;5015606;28;20177;-87
2023/06/02 08:11:44;;;;;;;17.77;16.03;;;14.90;82.10;;;;;;5016475;28;20212;-87
2023/06/02 08:14:10;;;;;;;19.03;14.50;;;14.80;81.30;;;;;;5015530;28;20184;-87
2023/06/02 08:16:35;;;;;;;17.37;15.30;;;14.90;81.80;;;;;;5016674;28;20269;-86
2023/06/02 08:19:01;;;;;;;17.10;15.27;;;14.80;80.90;;;;;;5015367;28;20185;-87
2023/06/02 08:21:26;;;;;;;18.20;15.13;;;14.90;81.20;;;;;;5015387;28;20557;-86
2023/06/02 08:23:52;;;;;;;17.00;15.60;;;15.00;81.60;;;;;;5015418;28;20181;-86
2023/06/02 08:26:17;;;;;;;16.70;14.90;;;15.00;80.90;;;;;;5015287;28;20185;-86
2023/06/02 08:28:48;;;;;;;15.00;13.60;;;15.10;80.50;;;;;;5015170;28;20178;-86
2023/06/02 08:31:14;;;;;;;8.80;7.07;;;15.20;79.80;;;;;;5015085;28;20220;-86
2023/06/02 08:33:40;;;;;;;9.27;6.60;;;15.20;79.70;;;;;;5015133;28;20644;-86
2023/06/02 08:36:08;;;;;;;11.95;7.65;;;15.30;80.00;;;;;;5015042;28;20170;-86
2023/06/02 08:38:33;;;;;;;8.38;7.43;;;15.50;78.50;;;;;;5015041;28;20214;-86
2023/06/02 08:40:59;;;;;;;8.07;7.28;;;15.80;79.50;;;;;;5015070;28;20193;-86
2023/06/02 08:43:25;;;;;;;7.97;7.28;;;16.00;77.10;;;;;;5016693;28;20197;-86
2023/06/02 08:45:50;;;;;;;10.52;7.53;;;16.00;77.20;;;;;;5015960;28;20184;-86
2023/06/02 08:48:17;;;;;;;10.02;7.25;;;16.00;76.60;;;;;;5016454;28;20193;-86
2023/06/02 08:50:46;;;;;;;7.78;6.85;;;15.90;76.10;;;;;;5014948;28;20251;-86
2023/06/02 08:53:14;;;;;;;10.90;7.55;;;16.00;77.00;;;;;;5014941;28;20201;-86
2023/06/02 08:55:41;;;;;;;8.48;7.78;;;16.20;77.00;;;;;;5014740;28;20272;-86
2023/06/02 08:58:10;;;;;;;10.00;8.70;;;16.10;75.10;;;;;;5015665;28;20636;-86
2023/06/02 09:00:37;;;;;;;9.13;8.20;;;15.90;74.60;;;;;;5014577;28;20177;-86
2023/06/02 09:03:03;;;;;;;8.88;7.90;;;15.80;73.90;;;;;;5014575;28;20200;-86
2023/06/02 09:05:30;;;;;;;9.38;8.52;;;15.70;74.60;;;;;;5014473;28;20174;-86
2023/06/02 09:08:13;;;;;;;9.82;9.13;;;15.80;74.50;;;;;;5014537;28;20647;-86
2023/06/02 09:10:42;;;;;;;12.02;9.30;;;15.90;72.90;;;;;;5015692;28;20250;-86
2023/06/02 09:13:29;;;;;;;11.18;9.13;;;16.10;72.10;;;;;;5015741;28;20279;-86
2023/06/02 09:15:59;;;;;;;10.88;8.90;;;16.10;72.30;;;;;;5014476;28;20169;-86
2023/06/02 09:18:25;;;;;;;9.15;8.25;;;16.30;72.90;;;;;;5015526;28;20165;-86
2023/06/02 09:20:52;;;;;;;20.88;9.48;;;16.70;72.60;;;;;;5014330;28;20284;-86
2023/06/02 09:23:18;;;;;;;10.43;9.32;;;17.10;72.10;;;;;;5014241;28;20201;-86
2023/06/02 09:25:45;;;;;;;9.65;8.50;;;17.00;71.20;;;;;;5014132;28;20181;-86
2023/06/02 09:28:11;;;;;;;10.45;9.65;;;17.00;71.80;;;;;;5014080;28;20204;-86
2023/06/02 09:30:38;;;;;;;11.30;10.27;;;16.30;70.40;;;;;;5014027;28;20201;-86
2023/06/02 09:33:08;;;;;;;10.45;9.45;;;16.30;71.10;;;;;;5015349;28;20200;-86
2023/06/02 09:35:42;;;;;;;10.07;9.05;;;16.20;72.00;;;;;;5015138;28;20647;-86
2023/06/02 09:38:17;;;;;;;14.32;10.02;;;16.50;71.30;;;;;;5015595;28;20166;-86
2023/06/02 09:40:44;;;;;;;11.23;10.43;;;16.80;70.30;;;;;;5015226;28;20173;-86
2023/06/02 09:43:11;;;;;;;11.80;10.88;;;16.70;68.50;;;;;;5015048;28;20189;-87
2023/06/02 09:45:49;;;;;;;11.20;10.43;;;16.70;69.00;;;;;;5013877;28;20188;-86
2023/06/02 09:48:20;;;;;;;12.55;11.60;;;16.80;68.80;;;;;;5013876;28;20173;-86
2023/06/02 09:50:45;;;;;;;11.70;10.80;;;17.00;67.30;;;;;;5013788;28;20287;-86
2023/06/02 09:53:13;;;;;;;12.48;11.45;;;16.90;67.50;;;;;;5013605;28;20620;-86
2023/06/02 09:55:39;;;;;;;11.88;10.75;;;16.80;67.30;;;;;;5013997;28;20183;-86
2023/06/02 09:58:06;;;;;;;12.35;11.45;;;17.20;67.40;;;;;;5014826;28;20249;-86
2023/06/02 10:00:32;;;;;;;13.60;12.40;;;17.50;66.80;;;;;;5013539;28;20182;-86
2023/06/02 10:02:58;;;;;;;14.18;12.90;;;17.50;64.60;;;;;;5014755;28;20190;-87
2023/06/02 10:05:24;;;;;;;13.57;12.52;;;17.80;64.30;;;;;;5014707;28;20169;-86
2023/06/02 10:07:56;;;;;;;14.27;13.00;;;18.20;65.10;;;;;;5014097;28;20520;-86
2023/06/02 10:10:52;;;;;;;13.70;12.70;;;18.10;62.10;;;;;;5013271;28;20173;-86
2023/06/02 10:13:41;;;;;;;14.05;12.80;;;18.00;62.70;;;;;;5011093;28;20217;-86
2023/06/02 10:16:31;;;;;;;14.52;13.48;;;17.70;62.30;;;;;;5013426;28;20168;-86
2023/06/02 10:19:31;;;;;;;14.65;13.38;;;17.50;62.90;;;;;;5013417;28;20644;-86
2023/06/02 10:22:11;;;;;;;13.93;12.82;;;17.80;65.20;;;;;;5014404;28;20204;-86
2023/06/02 10:25:07;;;;;;;15.38;13.88;;;18.00;62.60;;;;;;5013200;28;20161;-86
2023/06/02 10:27:36;;;;;;;14.52;13.30;;;18.20;63.20;;;;;;5013083;28;20196;-86
2023/06/02 10:30:02;;;;;;;14.55;13.45;;;18.50;61.50;;;;;;5012950;28;20181;-86
2023/06/02 10:32:33;;;;;;;14.43;13.20;;;18.60;60.70;;;;;;5014123;28;20201;-86
2023/06/02 10:35:00;;;;;;;16.23;14.52;;;18.50;61.40;;;;;;5012968;28;20162;-86
2023/06/02 10:37:26;;;;;;;13.73;12.82;;;18.30;58.80;;;;;;5012839;28;20597;-86
2023/06/02 10:39:56;;;;;;;14.57;13.60;;;18.10;58.90;;;;;;5012910;28;20181;-86
2023/06/02 10:42:26;;;;;;;14.60;13.43;;;17.70;60.50;;;;;;5012872;28;20204;-86
2023/06/02 10:45:12;;;;;;;14.48;13.32;;;17.40;60.10;;;;;;5014005;28;20188;-86
2023/06/02 10:47:38;;;;;;;15.30;14.10;;;17.30;60.10;;;;;;5012716;28;20173;-87
2023/06/02 10:50:09;;;;;;;14.13;12.90;;;17.70;61.00;;;;;;5012840;28;20177;-86
2023/06/02 10:53:00;;;;;;;14.73;13.73;;;18.00;58.00;;;;;;5013866;28;20205;-86
2023/06/02 10:55:34;;;;;;;14.15;13.15;;;18.20;60.20;;;;;;5013797;28;20178;-86
2023/06/02 10:58:05;;;;;;;14.35;13.38;;;18.60;59.50;;;;;;5012734;28;20212;-86
2023/06/02 11:00:35;;;;;;;12.25;11.30;;;18.20;58.70;;;;;;5013898;28;20165;-85
2023/06/02 11:03:10;;;;;;;13.50;12.70;;;18.40;58.00;;;;;;5013680;28;20199;-86
2023/06/02 11:05:36;;;;;;;14.80;13.60;;;18.60;59.20;;;;;;5014005;28;20161;-86
2023/06/02 11:08:11;;;;;;;16.33;13.60;;;18.40;55.90;;;;;;5012505;28;20632;-86
2023/06/02 11:10:46;;;;;;;14.95;13.85;;;18.20;57.40;;;;;;5013630;28;20165;-86
2023/06/02 11:13:16;;;;;;;14.70;13.63;;;18.20;58.70;;;;;;5012375;28;20216;-86
2023/06/02 11:16:06;;;;;;;14.20;13.10;;;18.00;56.70;;;;;;5013636;28;20722;-86
2023/06/02 11:18:31;;;;;;;13.40;12.45;;;17.60;57.60;;;;;;5013118;28;20567;-86
2023/06/02 11:21:20;;;;;;;13.55;12.68;;;17.90;57.10;;;;;;5012135;28;20177;-86
2023/06/02 11:23:45;;;;;;;14.57;13.30;;;18.30;56.70;;;;;;5013810;28;20161;-86
2023/06/02 11:26:15;;;;;;;13.60;12.70;;;18.30;55.50;;;;;;5012282;28;20208;-86
2023/06/02 11:28:41;;;;;;;13.90;12.90;;;18.70;56.30;;;;;;5013511;28;20200;-86
2023/06/02 11:31:18;;;;;;;15.57;14.27;;;18.80;55.50;;;;;;5013379;28;20233;-86
2023/06/02 11:33:48;;;;;;;14.20;13.35;;;18.50;53.60;;;;;;5013525;28;20161;-85
2023/06/02 11:36:16;;;;;;;14.73;13.52;;;18.40;53.60;;;;;;5012230;28;20166;-86
2023/06/02 11:38:42;;;;;;;15.00;13.70;;;18.70;55.40;;;;;;5013531;28;20177;-86
2023/06/02 11:41:12;;;;;;;15.40;14.00;;;18.70;53.40;;;;;;5013349;28;20209;-86
2023/06/02 11:43:39;;;;;;;14.25;13.25;;;19.00;53.70;;;;;;5013318;28;20656;-86
2023/06/02 11:46:09;;;;;;;14.57;13.48;;;19.30;52.40;;;;;;5012092;28;20181;-86
2023/06/02 11:48:40;;;;;;;14.80;13.70;;;19.40;52.30;;;;;;5012224;28;20655;-86
2023/06/02 11:51:06;;;;;;;14.25;13.18;;;19.30;51.50;;;;;;5013419;28;20295;-86
2023/06/02 11:53:32;;;;;;;14.55;13.30;;;19.50;50.00;;;;;;5012102;28;20679;-86
2023/06/02 11:55:58;;;;;;;14.10;12.90;;;19.50;50.90;;;;;;5012113;28;20181;-86
2023/06/02 11:58:27;;;;;;;14.40;13.30;;;19.00;50.00;;;;;;5012306;28;20180;-86
2023/06/02 12:01:06;;;;;;;14.43;13.43;;;18.50;52.00;;;;;;5012043;28;20177;-86
2023/06/02 12:03:32;;;;;;;14.50;13.52;;;18.50;52.60;;;;;;5012015;28;20224;-86
2023/06/02 12:06:09;;;;;;;14.73;13.73;;;19.10;52.80;;;;;;5011992;28;20652;-87
2023/06/02 12:08:35;;;;;;;14.52;13.55;;;19.50;52.40;;;;;;5012026;28;20180;-86
2023/06/02 12:11:01;;;;;;;14.73;13.52;;;19.70;50.70;;;;;;5011684;28;20197;-86
2023/06/02 12:13:30;;;;;;;15.00;13.90;;;19.20;50.00;;;;;;5011673;28;20307;-86
2023/06/02 12:16:18;;;;;;;14.52;13.25;;;18.80;50.60;;;;;;5011757;28;20313;-86
2023/06/02 12:18:43;;;;;;;14.05;13.05;;;19.00;50.50;;;;;;5011699;28;20176;-86
2023/06/02 12:21:26;;;;;;;14.32;13.32;;;18.90;51.40;;;;;;5011874;28;20177;-86
2023/06/02 12:23:52;;;;;;;14.07;13.07;;;19.20;48.40;;;;;;5013005;28;20162;-86
2023/06/02 12:26:18;;;;;;;14.82;13.60;;;18.70;47.70;;;;;;5011706;28;20173;-86
2023/06/02 12:28:45;;;;;;;13.57;12.68;;;18.60;49.70;;;;;;5011793;28;20185;-86
2023/06/02 12:31:11;;;;;;;15.43;14.10;;;18.40;50.80;;;;;;5012017;28;20633;-86
2023/06/02 12:33:37;;;;;;;14.20;13.25;;;18.00;49.40;;;;;;5015382;28;20170;-86
2023/06/02 12:36:03;;;;;;;14.70;13.40;;;18.20;51.90;;;;;;5015279;28;20173;-86